sensor_id;sensor_type;location;lat;lon;timestamp;pressure;altitude;pressure_sealevel;temperature;humidity
41230;BME280;26964;50.428;19.218;2023-04-01T00:00:35;1000.6;;;6.6;73.3
41230;BME280;26964;50.428;19.218;2023-04-01T00:01:35;1000.5;;;6.5;73.4
41230;BME280;26964;50.428;19.218;2023-04-01T00:02:35;1000.6;;;6.6;73.4
41230;BME280;26964;50.428;19.218;2023-04-01T00:03:35;1000.5;;;6.5;73.4
41230;BME280;26964;50.428;19.218;2023-04-01T00:04:36;1000.5;;;6.5;73.4
41230;BME280;26964;50.428;19.218;2023-04-01T00:05:36;1000.5;;;6.5;73.4
41230;BME280;26964;50.428;19.218;2023-04-01T00:06:35;1000.5;;;6.5;73.4
41230;BME280;26964;50.428;19.218;2023-04-01T00:07:35;1000.5;;;6.5;73.4
41230;BME280;26964;50.428;19.218;2023-04-01T00:08:36;1000.4;;;6.5;73.2
41230;BME280;26964;50.428;19.218;2023-04-01T00:09:36;1000.4;;;6.5;73.4
41230;BME280;26964;50.428;19.218;2023-04-01T00:10:35;1000.4;;;6.5;73.4
41230;BME280;26964;50.428;19.218;2023-04-01T00:11:36;1000.4;;;6.5;73.4
41230;BME280;26964;50.428;19.218;2023-04-01T00:12:35;1000.4;;;6.5;73.4
41230;BME280;26964;50.428;19.218;2023-04-01T00:13:36;1000.4;;;6.5;73.4
41230;BME280;26964;50.428;19.218;2023-04-01T00:14:35;1000.4;;;6.5;73.4
41230;BME280;26964;50.428;19.218;2023-04-01T00:15:35;1000.4;;;6.5;73.3
41230;BME280;26964;50.428;19.218;2023-04-01T00:16:35;1000.4;;;6.5;73.3
41230;BME280;26964;50.428;19.218;2023-04-01T00:17:35;1000.4;;;6.4;73.3
41230;BME280;26964;50.428;19.218;2023-04-01T00:18:36;1000.4;;;6.4;73.3
41230;BME280;26964;50.428;19.218;2023-04-01T00:19:36;1000.3;;;6.4;73.3
41230;BME280;26964;50.428;19.218;2023-04-01T00:20:35;1000.3;;;6.4;73.4
41230;BME280;26964;50.428;19.218;2023-04-01T00:21:35;1000.4;;;6.4;73.4
41230;BME280;26964;50.428;19.218;2023-04-01T00:22:35;1000.3;;;6.4;73.4
41230;BME280;26964;50.428;19.218;2023-04-01T00:23:35;1000.3;;;6.4;73.4
41230;BME280;26964;50.428;19.218;2023-04-01T00:24:35;1000.4;;;6.4;73.4
41230;BME280;26964;50.428;19.218;2023-04-01T00:25:36;1000.4;;;6.4;73.4
41230;BME280;26964;50.428;19.218;2023-04-01T00:26:35;1000.4;;;6.4;73.4
41230;BME280;26964;50.428;19.218;2023-04-01T00:27:35;1000.3;;;6.4;73.4
41230;BME280;26964;50.428;19.218;2023-04-01T00:28:35;1000.3;;;6.3;73.4
41230;BME280;26964;50.428;19.218;2023-04-01T00:29:36;1000.4;;;6.3;73.5
41230;BME280;26964;50.428;19.218;2023-04-01T00:30:35;1000.4;;;6.3;73.5
41230;BME280;26964;50.428;19.218;2023-04-01T00:31:35;1000.4;;;6.3;73.4
41230;BME280;26964;50.428;19.218;2023-04-01T00:32:36;1000.4;;;6.3;73.4
41230;BME280;26964;50.428;19.218;2023-04-01T00:33:36;1000.3;;;6.3;73.4
41230;BME280;26964;50.428;19.218;2023-04-01T00:34:35;1000.3;;;6.3;73.5
41230;BME280;26964;50.428;19.218;2023-04-01T00:35:35;1000.3;;;6.3;73.5
41230;BME280;26964;50.428;19.218;2023-04-01T00:36:35;1000.4;;;6.3;73.4
41230;BME280;26964;50.428;19.218;2023-04-01T00:37:37;1000.3;;;6.3;73.4
41230;BME280;26964;50.428;19.218;2023-04-01T00:38:35;1000.3;;;6.2;73.5
41230;BME280;26964;50.428;19.218;2023-04-01T00:39:35;1000.3;;;6.2;73.5
41230;BME280;26964;50.428;19.218;2023-04-01T00:40:36;1000.3;;;6.2;73.5
41230;BME280;26964;50.428;19.218;2023-04-01T00:41:35;1000.2;;;6.2;73.5
41230;BME280;26964;50.428;19.218;2023-04-01T00:42:36;1000.2;;;6.2;73.5
41230;BME280;26964;50.428;19.218;2023-04-01T00:43:36;1000.2;;;6.2;73.5
41230;BME280;26964;50.428;19.218;2023-04-01T00:44:37;1000.2;;;6.2;73.5
41230;BME280;26964;50.428;19.218;2023-04-01T00:45:37;1000.2;;;6.2;73.5
41230;BME280;26964;50.428;19.218;2023-04-01T00:46:35;1000.2;;;6.2;73.5
41230;BME280;26964;50.428;19.218;2023-04-01T00:47:35;1000.1;;;6.2;73.5
41230;BME280;26964;50.428;19.218;2023-04-01T00:48:36;1000.2;;;6.1;73.5
41230;BME280;26964;50.428;19.218;2023-04-01T00:49:38;1000.2;;;6.1;73.5
41230;BME280;26964;50.428;19.218;2023-04-01T00:50:36;1000.2;;;6.1;73.4
41230;BME280;26964;50.428;19.218;2023-04-01T00:51:37;1000.2;;;6.1;73.4
41230;BME280;26964;50.428;19.218;2023-04-01T00:52:35;1000.2;;;6.1;73.4
41230;BME280;26964;50.428;19.218;2023-04-01T00:53:39;1000.1;;;6.0;73.4
41230;BME280;26964;50.428;19.218;2023-04-01T00:54:36;1000.1;;;6.0;73.4
41230;BME280;26964;50.428;19.218;2023-04-01T00:55:37;1000.2;;;6.0;73.4
41230;BME280;26964;50.428;19.218;2023-04-01T00:56:36;1000.2;;;6.0;73.5
41230;BME280;26964;50.428;19.218;2023-04-01T00:57:36;1000.2;;;5.9;73.4
41230;BME280;26964;50.428;19.218;2023-04-01T00:58:38;1000.1;;;5.9;73.5
41230;BME280;26964;50.428;19.218;2023-04-01T00:59:38;1000.2;;;5.9;73.4
41230;BME280;26964;50.428;19.218;2023-04-01T01:00:35;1000.1;;;5.9;73.5
41230;BME280;26964;50.428;19.218;2023-04-01T01:01:35;1000.2;;;5.9;73.4
41230;BME280;26964;50.428;19.218;2023-04-01T01:02:35;1000.3;;;5.8;73.5
41230;BME280;26964;50.428;19.218;2023-04-01T01:03:35;1000.1;;;5.8;73.5
41230;BME280;26964;50.428;19.218;2023-04-01T01:04:35;1000.3;;;5.8;73.5
41230;BME280;26964;50.428;19.218;2023-04-01T01:06:40;1000.3;;;5.8;73.5
41230;BME280;26964;50.428;19.218;2023-04-01T01:07:40;1000.3;;;5.8;73.5
41230;BME280;26964;50.428;19.218;2023-04-01T01:08:43;1000.2;;;5.8;73.6
41230;BME280;26964;50.428;19.218;2023-04-01T01:09:41;1000.3;;;5.8;73.6
41230;BME280;26964;50.428;19.218;2023-04-01T01:10:39;1000.2;;;5.7;73.6
41230;BME280;26964;50.428;19.218;2023-04-01T01:11:40;1000.2;;;5.7;73.6
41230;BME280;26964;50.428;19.218;2023-04-01T01:12:39;1000.3;;;5.7;73.6
41230;BME280;26964;50.428;19.218;2023-04-01T01:13:40;1000.2;;;5.7;73.7
41230;BME280;26964;50.428;19.218;2023-04-01T01:15:39;1000.2;;;5.7;73.7
41230;BME280;26964;50.428;19.218;2023-04-01T01:16:39;1000.2;;;5.7;73.8
41230;BME280;26964;50.428;19.218;2023-04-01T01:17:42;1000.2;;;5.7;73.8
41230;BME280;26964;50.428;19.218;2023-04-01T01:18:39;1000.3;;;5.7;73.8
41230;BME280;26964;50.428;19.218;2023-04-01T01:20:49;1000.2;;;5.7;73.8
41230;BME280;26964;50.428;19.218;2023-04-01T01:25:40;1000.3;;;5.7;73.8
41230;BME280;26964;50.428;19.218;2023-04-01T01:26:42;1000.3;;;5.7;73.8
41230;BME280;26964;50.428;19.218;2023-04-01T01:27:39;1000.3;;;5.7;73.8
41230;BME280;26964;50.428;19.218;2023-04-01T01:28:42;1000.2;;;5.7;73.8
41230;BME280;26964;50.428;19.218;2023-04-01T01:30:39;1000.2;;;5.7;73.8
41230;BME280;26964;50.428;19.218;2023-04-01T01:31:37;1000.2;;;5.7;73.8
41230;BME280;26964;50.428;19.218;2023-04-01T01:34:44;1000.2;;;5.7;73.9
41230;BME280;26964;50.428;19.218;2023-04-01T01:35:37;1000.3;;;5.7;73.9
41230;BME280;26964;50.428;19.218;2023-04-01T01:36:36;1000.2;;;5.7;73.9
41230;BME280;26964;50.428;19.218;2023-04-01T01:37:35;1000.2;;;5.6;73.9
41230;BME280;26964;50.428;19.218;2023-04-01T01:38:36;1000.2;;;5.6;73.9
41230;BME280;26964;50.428;19.218;2023-04-01T01:39:35;1000.1;;;5.6;73.9
41230;BME280;26964;50.428;19.218;2023-04-01T01:40:36;1000.2;;;5.6;73.9
41230;BME280;26964;50.428;19.218;2023-04-01T01:41:38;1000.2;;;5.6;73.9
41230;BME280;26964;50.428;19.218;2023-04-01T01:42:37;1000.2;;;5.6;74.0
41230;BME280;26964;50.428;19.218;2023-04-01T01:43:37;1000.2;;;5.6;74.0
41230;BME280;26964;50.428;19.218;2023-04-01T01:44:35;1000.2;;;5.6;74.0
41230;BME280;26964;50.428;19.218;2023-04-01T01:45:37;1000.2;;;5.6;74.0
41230;BME280;26964;50.428;19.218;2023-04-01T01:46:36;1000.1;;;5.6;74.1
41230;BME280;26964;50.428;19.218;2023-04-01T01:47:35;1000.1;;;5.6;74.1
41230;BME280;26964;50.428;19.218;2023-04-01T01:48:36;1000.2;;;5.6;74.1
41230;BME280;26964;50.428;19.218;2023-04-01T01:49:36;1000.1;;;5.6;74.1
41230;BME280;26964;50.428;19.218;2023-04-01T01:50:35;1000.2;;;5.6;74.1
41230;BME280;26964;50.428;19.218;2023-04-01T01:51:36;1000.0;;;5.6;74.2
41230;BME280;26964;50.428;19.218;2023-04-01T01:52:35;1000.1;;;5.6;74.2
41230;BME280;26964;50.428;19.218;2023-04-01T01:53:35;1000.1;;;5.7;74.2
41230;BME280;26964;50.428;19.218;2023-04-01T01:54:35;1000.2;;;5.7;74.2
41230;BME280;26964;50.428;19.218;2023-04-01T01:55:36;1000.1;;;5.7;74.2
41230;BME280;26964;50.428;19.218;2023-04-01T01:56:35;1000.1;;;5.7;74.3
41230;BME280;26964;50.428;19.218;2023-04-01T01:57:39;1000.1;;;5.7;74.3
41230;BME280;26964;50.428;19.218;2023-04-01T01:58:37;1000.1;;;5.7;74.3
41230;BME280;26964;50.428;19.218;2023-04-01T01:59:37;1000.1;;;5.7;74.3
41230;BME280;26964;50.428;19.218;2023-04-01T02:00:35;1000.1;;;5.7;74.3
41230;BME280;26964;50.428;19.218;2023-04-01T02:01:37;1000.1;;;5.7;74.4
41230;BME280;26964;50.428;19.218;2023-04-01T02:02:35;1000.0;;;5.8;74.3
41230;BME280;26964;50.428;19.218;2023-04-01T02:03:36;1000.0;;;5.8;74.3
41230;BME280;26964;50.428;19.218;2023-04-01T02:04:37;1000.0;;;5.8;74.4
41230;BME280;26964;50.428;19.218;2023-04-01T02:05:35;1000.1;;;5.8;74.4
41230;BME280;26964;50.428;19.218;2023-04-01T02:06:40;1000.1;;;5.8;74.4
41230;BME280;26964;50.428;19.218;2023-04-01T02:07:35;1000.1;;;5.8;74.3
41230;BME280;26964;50.428;19.218;2023-04-01T02:08:36;1000.1;;;5.8;74.4
41230;BME280;26964;50.428;19.218;2023-04-01T02:09:35;1000.1;;;5.8;74.4
41230;BME280;26964;50.428;19.218;2023-04-01T02:10:37;1000.1;;;5.8;74.4
41230;BME280;26964;50.428;19.218;2023-04-01T02:11:40;1000.2;;;5.8;74.4
41230;BME280;26964;50.428;19.218;2023-04-01T02:12:35;1000.1;;;5.8;74.4
41230;BME280;26964;50.428;19.218;2023-04-01T02:13:40;1000.2;;;5.9;74.4
41230;BME280;26964;50.428;19.218;2023-04-01T02:14:38;1000.2;;;5.9;74.4
41230;BME280;26964;50.428;19.218;2023-04-01T02:15:40;1000.2;;;5.9;74.4
41230;BME280;26964;50.428;19.218;2023-04-01T02:16:40;1000.2;;;5.9;74.4
41230;BME280;26964;50.428;19.218;2023-04-01T02:17:39;1000.2;;;5.9;74.5
41230;BME280;26964;50.428;19.218;2023-04-01T02:18:36;1000.3;;;5.9;74.4
41230;BME280;26964;50.428;19.218;2023-04-01T02:19:39;1000.3;;;5.9;74.4
41230;BME280;26964;50.428;19.218;2023-04-01T02:20:36;1000.3;;;5.9;74.4
41230;BME280;26964;50.428;19.218;2023-04-01T02:21:36;1000.2;;;5.9;74.4
41230;BME280;26964;50.428;19.218;2023-04-01T02:22:37;1000.3;;;5.9;74.5
41230;BME280;26964;50.428;19.218;2023-04-01T02:23:36;1000.2;;;5.9;74.5
41230;BME280;26964;50.428;19.218;2023-04-01T02:24:35;1000.3;;;6.0;74.5
41230;BME280;26964;50.428;19.218;2023-04-01T02:25:36;1000.3;;;6.0;74.5
41230;BME280;26964;50.428;19.218;2023-04-01T02:26:35;1000.3;;;6.0;74.5
41230;BME280;26964;50.428;19.218;2023-04-01T02:27:35;1000.4;;;6.0;74.5
41230;BME280;26964;50.428;19.218;2023-04-01T02:28:38;1000.3;;;6.0;74.5
41230;BME280;26964;50.428;19.218;2023-04-01T02:29:36;1000.4;;;6.0;74.6
41230;BME280;26964;50.428;19.218;2023-04-01T02:30:36;1000.3;;;6.0;74.6
41230;BME280;26964;50.428;19.218;2023-04-01T02:31:35;1000.3;;;6.0;74.6
41230;BME280;26964;50.428;19.218;2023-04-01T02:32:35;1000.3;;;6.0;74.6
41230;BME280;26964;50.428;19.218;2023-04-01T02:33:36;1000.4;;;6.0;74.6
41230;BME280;26964;50.428;19.218;2023-04-01T02:34:35;1000.5;;;6.0;74.6
41230;BME280;26964;50.428;19.218;2023-04-01T02:35:36;1000.4;;;6.1;74.6
41230;BME280;26964;50.428;19.218;2023-04-01T02:36:36;1000.5;;;6.1;74.6
41230;BME280;26964;50.428;19.218;2023-04-01T02:37:36;1000.4;;;6.1;74.6
41230;BME280;26964;50.428;19.218;2023-04-01T02:38:35;1000.5;;;6.1;74.6
41230;BME280;26964;50.428;19.218;2023-04-01T02:39:36;1000.5;;;6.1;74.7
41230;BME280;26964;50.428;19.218;2023-04-01T02:41:39;1000.5;;;6.1;74.7
41230;BME280;26964;50.428;19.218;2023-04-01T02:42:35;1000.5;;;6.1;74.7
41230;BME280;26964;50.428;19.218;2023-04-01T02:43:35;1000.5;;;6.1;74.7
41230;BME280;26964;50.428;19.218;2023-04-01T02:44:36;1000.5;;;6.1;74.7
41230;BME280;26964;50.428;19.218;2023-04-01T02:45:35;1000.5;;;6.1;74.7
41230;BME280;26964;50.428;19.218;2023-04-01T02:46:35;1000.5;;;6.1;74.8
41230;BME280;26964;50.428;19.218;2023-04-01T02:47:35;1000.5;;;6.1;74.8
41230;BME280;26964;50.428;19.218;2023-04-01T02:48:35;1000.5;;;6.1;74.8
41230;BME280;26964;50.428;19.218;2023-04-01T02:49:35;1000.6;;;6.2;74.8
41230;BME280;26964;50.428;19.218;2023-04-01T02:50:35;1000.5;;;6.2;74.8
41230;BME280;26964;50.428;19.218;2023-04-01T02:51:35;1000.5;;;6.2;74.8
41230;BME280;26964;50.428;19.218;2023-04-01T02:52:36;1000.5;;;6.2;74.8
41230;BME280;26964;50.428;19.218;2023-04-01T02:53:35;1000.5;;;6.2;74.8
41230;BME280;26964;50.428;19.218;2023-04-01T02:54:35;1000.6;;;6.2;74.8
41230;BME280;26964;50.428;19.218;2023-04-01T02:55:35;1000.4;;;6.2;74.8
41230;BME280;26964;50.428;19.218;2023-04-01T02:56:35;1000.6;;;6.2;74.8
41230;BME280;26964;50.428;19.218;2023-04-01T02:57:35;1000.6;;;6.2;74.8
41230;BME280;26964;50.428;19.218;2023-04-01T02:58:35;1000.6;;;6.2;74.8
41230;BME280;26964;50.428;19.218;2023-04-01T02:59:35;1000.6;;;6.2;74.9
41230;BME280;26964;50.428;19.218;2023-04-01T03:00:36;1000.6;;;6.2;74.9
41230;BME280;26964;50.428;19.218;2023-04-01T03:01:35;1000.5;;;6.2;74.9
41230;BME280;26964;50.428;19.218;2023-04-01T03:02:35;1000.6;;;6.2;74.9
41230;BME280;26964;50.428;19.218;2023-04-01T03:03:35;1000.6;;;6.2;74.9
41230;BME280;26964;50.428;19.218;2023-04-01T03:04:35;1000.6;;;6.3;74.9
41230;BME280;26964;50.428;19.218;2023-04-01T03:05:35;1000.7;;;6.3;74.9
41230;BME280;26964;50.428;19.218;2023-04-01T03:06:35;1000.6;;;6.3;74.9
41230;BME280;26964;50.428;19.218;2023-04-01T03:07:35;1000.7;;;6.3;74.9
41230;BME280;26964;50.428;19.218;2023-04-01T03:08:35;1000.6;;;6.3;74.9
41230;BME280;26964;50.428;19.218;2023-04-01T03:09:35;1000.6;;;6.3;74.9
41230;BME280;26964;50.428;19.218;2023-04-01T03:10:35;1000.7;;;6.3;74.9
41230;BME280;26964;50.428;19.218;2023-04-01T03:11:35;1000.6;;;6.3;74.9
41230;BME280;26964;50.428;19.218;2023-04-01T03:12:34;1000.7;;;6.3;74.9
41230;BME280;26964;50.428;19.218;2023-04-01T03:13:35;1000.6;;;6.3;75.0
41230;BME280;26964;50.428;19.218;2023-04-01T03:14:35;1000.6;;;6.3;75.0
41230;BME280;26964;50.428;19.218;2023-04-01T03:15:36;1000.6;;;6.3;75.0
41230;BME280;26964;50.428;19.218;2023-04-01T03:16:35;1000.7;;;6.3;75.0
41230;BME280;26964;50.428;19.218;2023-04-01T03:17:35;1000.6;;;6.3;75.0
41230;BME280;26964;50.428;19.218;2023-04-01T03:18:35;1000.6;;;6.3;75.0
41230;BME280;26964;50.428;19.218;2023-04-01T03:19:35;1000.6;;;6.3;75.0
41230;BME280;26964;50.428;19.218;2023-04-01T03:20:35;1000.6;;;6.3;75.0
41230;BME280;26964;50.428;19.218;2023-04-01T03:21:34;1000.7;;;6.3;75.0
41230;BME280;26964;50.428;19.218;2023-04-01T03:22:35;1000.7;;;6.3;75.0
41230;BME280;26964;50.428;19.218;2023-04-01T03:23:35;1000.6;;;6.3;75.0
41230;BME280;26964;50.428;19.218;2023-04-01T03:24:35;1000.6;;;6.3;75.0
41230;BME280;26964;50.428;19.218;2023-04-01T03:25:34;1000.6;;;6.3;75.1
41230;BME280;26964;50.428;19.218;2023-04-01T03:26:35;1000.6;;;6.3;75.1
41230;BME280;26964;50.428;19.218;2023-04-01T03:27:35;1000.5;;;6.3;75.1
41230;BME280;26964;50.428;19.218;2023-04-01T03:28:35;1000.6;;;6.4;75.1
41230;BME280;26964;50.428;19.218;2023-04-01T03:29:35;1000.6;;;6.4;75.1
41230;BME280;26964;50.428;19.218;2023-04-01T03:30:35;1000.6;;;6.4;75.1
41230;BME280;26964;50.428;19.218;2023-04-01T03:31:35;1000.6;;;6.4;75.1
41230;BME280;26964;50.428;19.218;2023-04-01T03:32:36;1000.6;;;6.4;75.1
41230;BME280;26964;50.428;19.218;2023-04-01T03:33:36;1000.6;;;6.4;75.1
41230;BME280;26964;50.428;19.218;2023-04-01T03:34:35;1000.7;;;6.4;75.1
41230;BME280;26964;50.428;19.218;2023-04-01T03:35:35;1000.6;;;6.4;75.1
41230;BME280;26964;50.428;19.218;2023-04-01T03:36:36;1000.6;;;6.4;75.1
41230;BME280;26964;50.428;19.218;2023-04-01T03:37:35;1000.6;;;6.4;75.1
41230;BME280;26964;50.428;19.218;2023-04-01T03:38:35;1000.6;;;6.4;75.1
41230;BME280;26964;50.428;19.218;2023-04-01T03:39:36;1000.6;;;6.4;75.1
41230;BME280;26964;50.428;19.218;2023-04-01T03:40:35;1000.5;;;6.4;75.1
41230;BME280;26964;50.428;19.218;2023-04-01T03:41:35;1000.6;;;6.4;75.2
41230;BME280;26964;50.428;19.218;2023-04-01T03:42:35;1000.6;;;6.4;75.2
41230;BME280;26964;50.428;19.218;2023-04-01T03:43:35;1000.5;;;6.4;75.2
41230;BME280;26964;50.428;19.218;2023-04-01T03:44:35;1000.5;;;6.4;75.2
41230;BME280;26964;50.428;19.218;2023-04-01T03:45:34;1000.5;;;6.4;75.2
41230;BME280;26964;50.428;19.218;2023-04-01T03:46:35;1000.5;;;6.4;75.2
41230;BME280;26964;50.428;19.218;2023-04-01T03:47:35;1000.5;;;6.4;75.2
41230;BME280;26964;50.428;19.218;2023-04-01T03:48:34;1000.5;;;6.4;75.2
41230;BME280;26964;50.428;19.218;2023-04-01T03:49:35;1000.6;;;6.4;75.2
41230;BME280;26964;50.428;19.218;2023-04-01T03:50:35;1000.6;;;6.4;75.2
41230;BME280;26964;50.428;19.218;2023-04-01T03:51:35;1000.6;;;6.4;75.2
41230;BME280;26964;50.428;19.218;2023-04-01T03:52:34;1000.5;;;6.4;75.2
41230;BME280;26964;50.428;19.218;2023-04-01T03:53:35;1000.5;;;6.4;75.2
41230;BME280;26964;50.428;19.218;2023-04-01T03:54:35;1000.5;;;6.4;75.2
41230;BME280;26964;50.428;19.218;2023-04-01T03:55:35;1000.5;;;6.4;75.3
41230;BME280;26964;50.428;19.218;2023-04-01T03:56:35;1000.5;;;6.4;75.2
41230;BME280;26964;50.428;19.218;2023-04-01T03:57:34;1000.6;;;6.4;75.3
41230;BME280;26964;50.428;19.218;2023-04-01T03:58:35;1000.5;;;6.4;75.3
41230;BME280;26964;50.428;19.218;2023-04-01T03:59:34;1000.5;;;6.4;75.3
41230;BME280;26964;50.428;19.218;2023-04-01T04:00:35;1000.6;;;6.4;75.3
41230;BME280;26964;50.428;19.218;2023-04-01T04:01:35;1000.6;;;6.4;75.3
41230;BME280;26964;50.428;19.218;2023-04-01T04:02:34;1000.6;;;6.4;75.3
41230;BME280;26964;50.428;19.218;2023-04-01T04:03:34;1000.6;;;6.4;75.3
41230;BME280;26964;50.428;19.218;2023-04-01T04:04:35;1000.6;;;6.4;75.3
41230;BME280;26964;50.428;19.218;2023-04-01T04:05:34;1000.7;;;6.4;75.3
41230;BME280;26964;50.428;19.218;2023-04-01T04:06:35;1000.7;;;6.4;75.3
41230;BME280;26964;50.428;19.218;2023-04-01T04:07:34;1000.6;;;6.4;75.3
41230;BME280;26964;50.428;19.218;2023-04-01T04:08:35;1000.8;;;6.4;75.4
41230;BME280;26964;50.428;19.218;2023-04-01T04:09:35;1000.7;;;6.4;75.3
41230;BME280;26964;50.428;19.218;2023-04-01T04:10:35;1000.7;;;6.4;75.4
41230;BME280;26964;50.428;19.218;2023-04-01T04:11:35;1000.6;;;6.4;75.4
41230;BME280;26964;50.428;19.218;2023-04-01T04:12:35;1000.6;;;6.4;75.4
41230;BME280;26964;50.428;19.218;2023-04-01T04:13:35;1000.8;;;6.4;75.5
41230;BME280;26964;50.428;19.218;2023-04-01T04:14:35;1000.7;;;6.4;75.4
41230;BME280;26964;50.428;19.218;2023-04-01T04:15:35;1000.6;;;6.4;75.5
41230;BME280;26964;50.428;19.218;2023-04-01T04:16:35;1000.6;;;6.5;75.5
41230;BME280;26964;50.428;19.218;2023-04-01T04:17:34;1000.6;;;6.5;75.5
41230;BME280;26964;50.428;19.218;2023-04-01T04:18:35;1000.6;;;6.5;75.5
41230;BME280;26964;50.428;19.218;2023-04-01T04:19:35;1000.6;;;6.5;75.5
41230;BME280;26964;50.428;19.218;2023-04-01T04:20:35;1000.6;;;6.5;75.5
41230;BME280;26964;50.428;19.218;2023-04-01T04:21:35;1000.7;;;6.5;75.5
41230;BME280;26964;50.428;19.218;2023-04-01T04:22:35;1000.7;;;6.5;75.5
41230;BME280;26964;50.428;19.218;2023-04-01T04:23:35;1000.6;;;6.5;75.5
41230;BME280;26964;50.428;19.218;2023-04-01T04:24:34;1000.6;;;6.5;75.5
41230;BME280;26964;50.428;19.218;2023-04-01T04:25:35;1000.7;;;6.5;75.5
41230;BME280;26964;50.428;19.218;2023-04-01T04:26:35;1000.7;;;6.5;75.5
41230;BME280;26964;50.428;19.218;2023-04-01T04:27:34;1000.7;;;6.5;75.5
41230;BME280;26964;50.428;19.218;2023-04-01T04:28:35;1000.7;;;6.5;75.5
41230;BME280;26964;50.428;19.218;2023-04-01T04:29:35;1000.7;;;6.6;75.6
41230;BME280;26964;50.428;19.218;2023-04-01T04:30:35;1000.6;;;6.6;75.6
41230;BME280;26964;50.428;19.218;2023-04-01T04:31:35;1000.6;;;6.6;75.5
41230;BME280;26964;50.428;19.218;2023-04-01T04:32:34;1000.5;;;6.6;75.6
41230;BME280;26964;50.428;19.218;2023-04-01T04:33:35;1000.7;;;6.6;75.6
41230;BME280;26964;50.428;19.218;2023-04-01T04:34:35;1000.6;;;6.6;75.6
41230;BME280;26964;50.428;19.218;2023-04-01T04:35:35;1000.6;;;6.6;75.6
41230;BME280;26964;50.428;19.218;2023-04-01T04:36:35;1000.6;;;6.6;75.6
41230;BME280;26964;50.428;19.218;2023-04-01T04:37:35;1000.6;;;6.6;75.6
41230;BME280;26964;50.428;19.218;2023-04-01T04:38:35;1000.5;;;6.6;75.6
41230;BME280;26964;50.428;19.218;2023-04-01T04:39:35;1000.6;;;6.6;75.5
41230;BME280;26964;50.428;19.218;2023-04-01T04:40:35;1000.6;;;6.6;75.6
41230;BME280;26964;50.428;19.218;2023-04-01T04:41:36;1000.6;;;6.6;75.6
41230;BME280;26964;50.428;19.218;2023-04-01T04:42:34;1000.6;;;6.6;75.6
41230;BME280;26964;50.428;19.218;2023-04-01T04:43:35;1000.5;;;6.6;75.6
41230;BME280;26964;50.428;19.218;2023-04-01T04:44:34;1000.6;;;6.7;75.6
41230;BME280;26964;50.428;19.218;2023-04-01T04:45:35;1000.6;;;6.7;75.6
41230;BME280;26964;50.428;19.218;2023-04-01T04:46:35;1000.6;;;6.7;75.6
41230;BME280;26964;50.428;19.218;2023-04-01T04:47:35;1000.6;;;6.7;75.6
41230;BME280;26964;50.428;19.218;2023-04-01T04:48:35;1000.6;;;6.7;75.6
41230;BME280;26964;50.428;19.218;2023-04-01T04:49:35;1000.7;;;6.7;75.6
41230;BME280;26964;50.428;19.218;2023-04-01T04:50:35;1000.6;;;6.7;75.6
41230;BME280;26964;50.428;19.218;2023-04-01T04:51:35;1000.7;;;6.7;75.6
41230;BME280;26964;50.428;19.218;2023-04-01T04:52:35;1000.7;;;6.7;75.6
41230;BME280;26964;50.428;19.218;2023-04-01T04:53:35;1000.7;;;6.7;75.6
41230;BME280;26964;50.428;19.218;2023-04-01T04:54:34;1000.7;;;6.7;75.6
41230;BME280;26964;50.428;19.218;2023-04-01T04:55:35;1000.6;;;6.7;75.7
41230;BME280;26964;50.428;19.218;2023-04-01T04:56:35;1000.7;;;6.7;75.7
41230;BME280;26964;50.428;19.218;2023-04-01T04:57:35;1000.7;;;6.7;75.7
41230;BME280;26964;50.428;19.218;2023-04-01T04:58:35;1000.8;;;6.7;75.7
41230;BME280;26964;50.428;19.218;2023-04-01T04:59:34;1000.6;;;6.7;75.7
41230;BME280;26964;50.428;19.218;2023-04-01T05:00:35;1000.7;;;6.7;75.7
41230;BME280;26964;50.428;19.218;2023-04-01T05:01:35;1000.7;;;6.7;75.7
41230;BME280;26964;50.428;19.218;2023-04-01T05:02:35;1000.7;;;6.8;75.7
41230;BME280;26964;50.428;19.218;2023-04-01T05:03:35;1000.7;;;6.8;75.7
41230;BME280;26964;50.428;19.218;2023-04-01T05:04:35;1000.7;;;6.8;75.7
41230;BME280;26964;50.428;19.218;2023-04-01T05:05:36;1000.7;;;6.8;75.7
41230;BME280;26964;50.428;19.218;2023-04-01T05:06:34;1000.7;;;6.8;75.7
41230;BME280;26964;50.428;19.218;2023-04-01T05:07:35;1000.7;;;6.8;75.8
41230;BME280;26964;50.428;19.218;2023-04-01T05:08:35;1000.7;;;6.8;75.8
41230;BME280;26964;50.428;19.218;2023-04-01T05:09:35;1000.7;;;6.8;75.8
41230;BME280;26964;50.428;19.218;2023-04-01T05:10:34;1000.7;;;6.8;75.8
41230;BME280;26964;50.428;19.218;2023-04-01T05:11:35;1000.6;;;6.8;75.8
41230;BME280;26964;50.428;19.218;2023-04-01T05:12:34;1000.7;;;6.8;75.8
41230;BME280;26964;50.428;19.218;2023-04-01T05:13:35;1000.7;;;6.9;75.8
41230;BME280;26964;50.428;19.218;2023-04-01T05:14:35;1000.8;;;6.9;75.8
41230;BME280;26964;50.428;19.218;2023-04-01T05:15:35;1000.8;;;6.9;75.8
41230;BME280;26964;50.428;19.218;2023-04-01T05:16:35;1000.7;;;6.9;75.9
41230;BME280;26964;50.428;19.218;2023-04-01T05:17:35;1000.7;;;6.9;75.9
41230;BME280;26964;50.428;19.218;2023-04-01T05:18:46;1000.8;;;6.9;75.9
41230;BME280;26964;50.428;19.218;2023-04-01T05:19:35;1000.8;;;6.9;75.9
41230;BME280;26964;50.428;19.218;2023-04-01T05:20:35;1000.8;;;6.9;75.9
41230;BME280;26964;50.428;19.218;2023-04-01T05:21:35;1000.8;;;6.9;75.9
41230;BME280;26964;50.428;19.218;2023-04-01T05:22:35;1000.7;;;7.0;76.0
41230;BME280;26964;50.428;19.218;2023-04-01T05:23:35;1000.7;;;7.0;76.0
41230;BME280;26964;50.428;19.218;2023-04-01T05:24:35;1000.7;;;7.0;76.0
41230;BME280;26964;50.428;19.218;2023-04-01T05:25:38;1000.8;;;7.0;76.0
41230;BME280;26964;50.428;19.218;2023-04-01T05:26:35;1000.7;;;7.0;76.0
41230;BME280;26964;50.428;19.218;2023-04-01T05:27:35;1000.7;;;7.1;76.0
41230;BME280;26964;50.428;19.218;2023-04-01T05:28:35;1000.8;;;7.1;76.0
41230;BME280;26964;50.428;19.218;2023-04-01T05:29:34;1000.8;;;7.1;76.0
41230;BME280;26964;50.428;19.218;2023-04-01T05:30:34;1000.7;;;7.1;76.0
41230;BME280;26964;50.428;19.218;2023-04-01T05:31:35;1000.8;;;7.1;76.0
41230;BME280;26964;50.428;19.218;2023-04-01T05:32:34;1000.8;;;7.1;76.0
41230;BME280;26964;50.428;19.218;2023-04-01T05:33:35;1000.8;;;7.1;76.0
41230;BME280;26964;50.428;19.218;2023-04-01T05:34:35;1000.7;;;7.1;76.0
41230;BME280;26964;50.428;19.218;2023-04-01T05:35:35;1000.9;;;7.2;76.1
41230;BME280;26964;50.428;19.218;2023-04-01T05:36:35;1000.8;;;7.2;76.0
41230;BME280;26964;50.428;19.218;2023-04-01T05:37:35;1000.8;;;7.2;76.1
41230;BME280;26964;50.428;19.218;2023-04-01T05:38:35;1000.8;;;7.2;76.1
41230;BME280;26964;50.428;19.218;2023-04-01T05:39:36;1000.8;;;7.2;76.1
41230;BME280;26964;50.428;19.218;2023-04-01T05:40:34;1000.8;;;7.2;76.1
41230;BME280;26964;50.428;19.218;2023-04-01T05:41:35;1000.8;;;7.2;76.1
41230;BME280;26964;50.428;19.218;2023-04-01T05:42:35;1000.7;;;7.3;76.1
41230;BME280;26964;50.428;19.218;2023-04-01T05:43:36;1000.8;;;7.3;76.1
41230;BME280;26964;50.428;19.218;2023-04-01T05:44:35;1000.8;;;7.3;76.2
41230;BME280;26964;50.428;19.218;2023-04-01T05:45:35;1000.8;;;7.3;76.2
41230;BME280;26964;50.428;19.218;2023-04-01T05:46:35;1000.8;;;7.3;76.2